Keoyoung Sun — DSOD8 — position and weather

sailwx.info

Track history (hours):
 
Tides and Currents Weather Stations Pressure Air Temp Water Temp Dewpoint Dewpoint Depression Visibility Wind Speed Wind Dir Waves Ship Positions

Keoyoung Sun

Last reported at 2018-Feb-18 18:17 UTC. Time now 2018-Feb-19 00:02 UTC.
Position N 34°11' E 130°25'.

Length 64 m; draft 4.5 m.

Type: Tanker. MMSI: 440554000.

Date/timePositionNaut miles runAvg speedWind from/ knotsBaromVisibWave heightAir tempDewpointWater temp
2018-Feb-18 18:17N 34°11' E 130°25'3 9.6
2018-Feb-18 18:00N 34°12' E 130°28'5 9.3
2018-Feb-18 17:30N 34°10' E 130°33'5 9.9
2018-Feb-18 16:58N 34°07' E 130°39'510.0
2018-Feb-18 16:31N 34°05' E 130°44'510.0
2018-Feb-18 16:00N 34°03' E 130°49'5 9.3
2018-Feb-18 15:30N 33°58' E 130°50'510.7
2018-Feb-18 15:01N 33°55' E 130°55'611.9
2018-Feb-18 14:30N 33°59' E 131°01'610.7
2018-Feb-18 13:59N 33°56' E 131°06'510.6
2018-Feb-18 13:30N 33°53' E 131°11'510.6
2018-Feb-18 13:00N 33°51' E 131°17'510.7
2018-Feb-18 12:30N 33°50' E 131°24'510.7
2018-Feb-18 12:00N 33°49' E 131°30'511.0
2018-Feb-18 11:30N 33°49' E 131°36'611.4
2018-Feb-18 10:59N 33°48' E 131°43'1411.0
2018-Feb-18 09:41N 33°46' E 132°01'3410.9
2018-Feb-18 06:36N 33°56' E 132°39'212.9
2018-Feb-18 06:30N 33°56' E 132°41'11210.0
2018-Feb-17 19:15N 34°34' E 134°49'2 8.6
2018-Feb-17 18:58N 34°35' E 134°52'4 7.7
2018-Feb-17 18:29N 34°36' E 134°56'4 7.6
2018-Feb-17 18:00N 34°38' E 134°60'3 6.4
2018-Feb-17 17:30N 34°36' E 135°03'4 8.0
2018-Feb-17 17:00N 34°32' E 135°05'5 9.7
2018-Feb-17 16:30N 34°28' E 135°05'5 9.7
2018-Feb-17 16:00N 34°23' E 135°02'5 9.2
2018-Feb-17 15:30N 34°19' E 134°60'4 8.8
2018-Feb-17 15:00N 34°15' E 134°59'5 9.5
2018-Feb-17 14:30N 34°10' E 134°60'5 9.1
2018-Feb-17 14:00N 34°05' E 135°00'4 9.0
2018-Feb-17 13:30N 34°01' E 135°01'196 7.4
2018-Feb-16 10:52N 34°36' E 138°54'4 9.4
2018-Feb-16 10:24N 34°37' E 138°59'410.4
2018-Feb-16 10:00N 34°40' E 139°03'9 9.8
2018-Feb-16 09:08N 34°45' E 139°11'37 9.3
2018-Feb-16 05:10N 35°09' E 139°45'210.8
2018-Feb-16 05:00N 35°11' E 139°46'7 9.8
2018-Feb-16 04:20N 35°18' E 139°44'410.1
2018-Feb-16 03:59N 35°21' E 139°42'5 9.9
2018-Feb-16 03:30N 35°25' E 139°45'511.0
2018-Feb-16 03:01N 35°29' E 139°50'811.0
2018-Feb-16 02:18N 35°32' E 139°58'311.1
2018-Feb-16 01:59N 35°34' E 140°02'4 1.4
2018-Feb-15 23:16N 35°33' E 140°07'1 4.6
2018-Feb-15 22:59N 35°33' E 140°05'1 2.0
2018-Feb-15 22:29N 35°34' E 140°04'0 0.0
2018-Feb-15 21:59N 35°34' E 140°04'0 0.1
2018-Feb-15 21:29N 35°34' E 140°04'0 0.0
2018-Feb-15 20:59N 35°34' E 140°04'0 0.0
2018-Feb-15 20:29N 35°34' E 140°04'0 0.1
2018-Feb-15 19:59N 35°34' E 140°04'0 0.1
2018-Feb-15 19:29N 35°34' E 140°04'0 0.1
2018-Feb-15 18:59N 35°34' E 140°04'0 0.0
2018-Feb-15 18:29N 35°34' E 140°04'0 0.1
2018-Feb-15 17:59N 35°34' E 140°04'0 0.0
2018-Feb-15 17:29N 35°34' E 140°04'0 0.1
2018-Feb-15 16:59N 35°34' E 140°04'0 0.0
2018-Feb-15 16:29N 35°34' E 140°04'0 0.2
2018-Feb-15 16:01N 35°34' E 140°04'5 9.7
2018-Feb-15 15:30N 35°32' E 139°59'6 9.8
2018-Feb-15 14:56N 35°29' E 139°53'4 9.7
2018-Feb-15 14:30N 35°26' E 139°49'5 9.6
2018-Feb-15 14:01N 35°23' E 139°46'5 9.2
2018-Feb-15 13:31N 35°18' E 139°44'5 9.1
2018-Feb-15 13:00N 35°14' E 139°47'4 9.0
2018-Feb-15 12:30N 35°10' E 139°46'11 9.1
2018-Feb-15 11:20N 35°01' E 139°38'2411.1
2018-Feb-15 09:08N 34°46' E 139°15'212.2
2018-Feb-15 08:59N 34°44' E 139°14'511.6
2018-Feb-15 08:30N 34°40' E 139°09'510.0
2018-Feb-15 08:00N 34°38' E 139°03'510.2
2018-Feb-15 07:30N 34°36' E 138°58'710.2
2018-Feb-15 06:52N 34°35' E 138°50'194 8.5
2018-Feb-14 08:07N 33°54' E 135°01'4 9.0
2018-Feb-14 07:41N 33°58' E 134°59'3 9.6
2018-Feb-14 07:23N 34°00' E 134°58'4 9.9
2018-Feb-14 07:00N 34°04' E 134°58'510.5
2018-Feb-14 06:30N 34°09' E 134°58'510.8
2018-Feb-14 06:00N 34°15' E 134°58'510.5
2018-Feb-14 05:31N 34°20' E 134°59'510.5
2018-Feb-14 05:01N 34°24' E 135°02'510.3
2018-Feb-14 04:30N 34°29' E 135°06'510.2
2018-Feb-14 04:00N 34°33' E 135°09'5 9.0
2018-Feb-14 03:30N 34°36' E 135°13'4 8.3
2018-Feb-14 03:00N 34°40' E 135°15'2 4.7
2018-Feb-14 02:30N 34°42' E 135°15'0 0.0
2018-Feb-14 02:00N 34°42' E 135°15'0 0.0
2018-Feb-14 01:30N 34°42' E 135°15'0 0.0
2018-Feb-14 01:00N 34°42' E 135°15'0 0.0
2018-Feb-14 00:30N 34°42' E 135°15'0 0.0
2018-Feb-14 00:00N 34°42' E 135°15'0 0.0
2018-Feb-13 23:30N 34°42' E 135°15'0 0.0
2018-Feb-13 23:00N 34°42' E 135°15'1 2.9
2018-Feb-13 22:30N 34°41' E 135°15'4 7.1
2018-Feb-13 22:00N 34°38' E 135°18'0 0.2
2018-Feb-13 21:30N 34°38' E 135°18'0 0.1
2018-Feb-13 20:57N 34°38' E 135°18'0 0.0
2018-Feb-13 20:27N 34°38' E 135°18'0 0.0
2018-Feb-13 20:00N 34°38' E 135°18'0 0.0
2018-Feb-13 19:30N 34°38' E 135°18'0 0.0
2018-Feb-13 19:00N 34°38' E 135°18'0 0.0
2018-Feb-13 18:30N 34°38' E 135°18'0 0.0
2018-Feb-13 18:00N 34°38' E 135°18'0 0.0
2018-Feb-13 17:30N 34°38' E 135°18'0 0.0
2018-Feb-13 17:00N 34°38' E 135°18'0 0.0
2018-Feb-13 16:27N 34°38' E 135°18'0 0.0
2018-Feb-13 16:00N 34°38' E 135°18'0 0.0
2018-Feb-13 15:30N 34°38' E 135°18'0 0.0
2018-Feb-13 15:00N 34°38' E 135°18'0 0.0
2018-Feb-13 14:30N 34°38' E 135°18'0 0.0
2018-Feb-13 14:00N 34°38' E 135°18'0 0.0
2018-Feb-13 13:30N 34°38' E 135°18'0 0.0
2018-Feb-13 13:00N 34°38' E 135°18'0 0.0
2018-Feb-13 12:30N 34°38' E 135°18'0 0.5
2018-Feb-13 12:01N 34°38' E 135°18'5 9.0
2018-Feb-13 11:30N 34°35' E 135°14'5 9.8
2018-Feb-13 11:00N 34°35' E 135°08'5 9.1
2018-Feb-13 10:30N 34°36' E 135°02'4 7.6
2018-Feb-13 10:00N 34°37' E 134°58'5 9.2
2018-Feb-13 09:30N 34°35' E 134°53'5 9.7
2018-Feb-13 09:00N 34°33' E 134°47'5 9.9
2018-Feb-13 08:30N 34°31' E 134°42'510.0
2018-Feb-13 08:00N 34°29' E 134°36'5 9.9
2018-Feb-13 07:30N 34°27' E 134°31'510.1
2018-Feb-13 07:00N 34°25' E 134°25'8710.0
2018-Feb-12 22:23N 33°60' E 132°45'511.6
2018-Feb-12 21:58N 33°56' E 132°41'3210.5
2018-Feb-12 18:53N 33°45' E 132°04'10 9.7
2018-Feb-12 17:54N 33°45' E 131°53'6 9.9
2018-Feb-12 17:19N 33°45' E 131°46'310.2
2018-Feb-12 17:00N 33°46' E 131°42'510.4
2018-Feb-12 16:29N 33°47' E 131°36'510.3
2018-Feb-12 16:00N 33°48' E 131°30'510.6
2018-Feb-12 15:30N 33°49' E 131°24'510.7
2018-Feb-12 15:00N 33°50' E 131°18'510.9
2018-Feb-12 14:30N 33°52' E 131°11'511.0
2018-Feb-12 14:00N 33°55' E 131°06'510.4
2018-Feb-12 13:30N 33°58' E 131°01'5 9.6
2018-Feb-12 13:00N 33°56' E 130°56'3 6.3
2018-Feb-12 12:30N 33°56' E 130°52'4 8.9
2018-Feb-12 12:01N 34°00' E 130°50'5 9.1
2018-Feb-12 11:31N 34°03' E 130°47'5 9.5
2018-Feb-12 11:00N 34°06' E 130°42'5 9.3
2018-Feb-12 10:30N 34°09' E 130°37'5 9.6
2018-Feb-12 10:00N 34°12' E 130°33'5 9.7
2018-Feb-12 09:30N 34°14' E 130°28'5 9.8
2018-Feb-12 09:00N 34°18' E 130°23'5 9.9
2018-Feb-12 08:30N 34°21' E 130°18'  
2018-Feb-09 13:00N 31°30' E 121°25'  
Track history (hours):
 
Tides and Currents Weather Stations Pressure Air Temp Water Temp Dewpoint Dewpoint Depression Visibility Wind Speed Wind Dir Waves Ship Positions

Keoyoung Sun

Last reported at 2018-Feb-18 18:17 UTC. Time now 2018-Feb-19 00:02 UTC.
Position N 34°11' E 130°25'.

Length 64 m; draft 4.5 m.

Type: Tanker. MMSI: 440554000.

Date/timePositionNaut miles runAvg speedWind from/ knotsBaromVisibWave heightAir tempDewpointWater temp
2018-Feb-18 18:17N 34°11' E 130°25'3 9.6
2018-Feb-18 18:00N 34°12' E 130°28'5 9.3
2018-Feb-18 17:30N 34°10' E 130°33'5 9.9
2018-Feb-18 16:58N 34°07' E 130°39'510.0
2018-Feb-18 16:31N 34°05' E 130°44'510.0
2018-Feb-18 16:00N 34°03' E 130°49'5 9.3
2018-Feb-18 15:30N 33°58' E 130°50'510.7
2018-Feb-18 15:01N 33°55' E 130°55'611.9
2018-Feb-18 14:30N 33°59' E 131°01'610.7
2018-Feb-18 13:59N 33°56' E 131°06'510.6
2018-Feb-18 13:30N 33°53' E 131°11'510.6
2018-Feb-18 13:00N 33°51' E 131°17'510.7
2018-Feb-18 12:30N 33°50' E 131°24'510.7
2018-Feb-18 12:00N 33°49' E 131°30'511.0
2018-Feb-18 11:30N 33°49' E 131°36'611.4
2018-Feb-18 10:59N 33°48' E 131°43'1411.0
2018-Feb-18 09:41N 33°46' E 132°01'3410.9
2018-Feb-18 06:36N 33°56' E 132°39'212.9
2018-Feb-18 06:30N 33°56' E 132°41'11210.0
2018-Feb-17 19:15N 34°34' E 134°49'2 8.6
2018-Feb-17 18:58N 34°35' E 134°52'4 7.7
2018-Feb-17 18:29N 34°36' E 134°56'4 7.6
2018-Feb-17 18:00N 34°38' E 134°60'3 6.4
2018-Feb-17 17:30N 34°36' E 135°03'4 8.0
2018-Feb-17 17:00N 34°32' E 135°05'5 9.7
2018-Feb-17 16:30N 34°28' E 135°05'5 9.7
2018-Feb-17 16:00N 34°23' E 135°02'5 9.2
2018-Feb-17 15:30N 34°19' E 134°60'4 8.8
2018-Feb-17 15:00N 34°15' E 134°59'5 9.5
2018-Feb-17 14:30N 34°10' E 134°60'5 9.1
2018-Feb-17 14:00N 34°05' E 135°00'4 9.0
2018-Feb-17 13:30N 34°01' E 135°01'196 7.4
2018-Feb-16 10:52N 34°36' E 138°54'4 9.4
2018-Feb-16 10:24N 34°37' E 138°59'410.4
2018-Feb-16 10:00N 34°40' E 139°03'9 9.8
2018-Feb-16 09:08N 34°45' E 139°11'37 9.3
2018-Feb-16 05:10N 35°09' E 139°45'210.8
2018-Feb-16 05:00N 35°11' E 139°46'7 9.8
2018-Feb-16 04:20N 35°18' E 139°44'410.1
2018-Feb-16 03:59N 35°21' E 139°42'5 9.9
2018-Feb-16 03:30N 35°25' E 139°45'511.0
2018-Feb-16 03:01N 35°29' E 139°50'811.0
2018-Feb-16 02:18N 35°32' E 139°58'311.1
2018-Feb-16 01:59N 35°34' E 140°02'4 1.4
2018-Feb-15 23:16N 35°33' E 140°07'1 4.6
2018-Feb-15 22:59N 35°33' E 140°05'1 2.0
2018-Feb-15 22:29N 35°34' E 140°04'0 0.0
2018-Feb-15 21:59N 35°34' E 140°04'0 0.1
2018-Feb-15 21:29N 35°34' E 140°04'0 0.0
2018-Feb-15 20:59N 35°34' E 140°04'0 0.0
2018-Feb-15 20:29N 35°34' E 140°04'0 0.1
2018-Feb-15 19:59N 35°34' E 140°04'0 0.1
2018-Feb-15 19:29N 35°34' E 140°04'0 0.1
2018-Feb-15 18:59N 35°34' E 140°04'0 0.0
2018-Feb-15 18:29N 35°34' E 140°04'0 0.1
2018-Feb-15 17:59N 35°34' E 140°04'0 0.0
2018-Feb-15 17:29N 35°34' E 140°04'0 0.1
2018-Feb-15 16:59N 35°34' E 140°04'0 0.0
2018-Feb-15 16:29N 35°34' E 140°04'0 0.2
2018-Feb-15 16:01N 35°34' E 140°04'5 9.7
2018-Feb-15 15:30N 35°32' E 139°59'6 9.8
2018-Feb-15 14:56N 35°29' E 139°53'4 9.7
2018-Feb-15 14:30N 35°26' E 139°49'5 9.6
2018-Feb-15 14:01N 35°23' E 139°46'5 9.2
2018-Feb-15 13:31N 35°18' E 139°44'5 9.1
2018-Feb-15 13:00N 35°14' E 139°47'4 9.0
2018-Feb-15 12:30N 35°10' E 139°46'11 9.1
2018-Feb-15 11:20N 35°01' E 139°38'2411.1
2018-Feb-15 09:08N 34°46' E 139°15'212.2
2018-Feb-15 08:59N 34°44' E 139°14'511.6
2018-Feb-15 08:30N 34°40' E 139°09'510.0
2018-Feb-15 08:00N 34°38' E 139°03'510.2
2018-Feb-15 07:30N 34°36' E 138°58'710.2
2018-Feb-15 06:52N 34°35' E 138°50'194 8.5
2018-Feb-14 08:07N 33°54' E 135°01'4 9.0
2018-Feb-14 07:41N 33°58' E 134°59'3 9.6
2018-Feb-14 07:23N 34°00' E 134°58'4 9.9
2018-Feb-14 07:00N 34°04' E 134°58'510.5
2018-Feb-14 06:30N 34°09' E 134°58'510.8
2018-Feb-14 06:00N 34°15' E 134°58'510.5
2018-Feb-14 05:31N 34°20' E 134°59'510.5
2018-Feb-14 05:01N 34°24' E 135°02'510.3
2018-Feb-14 04:30N 34°29' E 135°06'510.2
2018-Feb-14 04:00N 34°33' E 135°09'5 9.0
2018-Feb-14 03:30N 34°36' E 135°13'4 8.3
2018-Feb-14 03:00N 34°40' E 135°15'2 4.7
2018-Feb-14 02:30N 34°42' E 135°15'0 0.0
2018-Feb-14 02:00N 34°42' E 135°15'0 0.0
2018-Feb-14 01:30N 34°42' E 135°15'0 0.0
2018-Feb-14 01:00N 34°42' E 135°15'0 0.0
2018-Feb-14 00:30N 34°42' E 135°15'0 0.0
2018-Feb-14 00:00N 34°42' E 135°15'0 0.0
2018-Feb-13 23:30N 34°42' E 135°15'0 0.0
2018-Feb-13 23:00N 34°42' E 135°15'1 2.9
2018-Feb-13 22:30N 34°41' E 135°15'4 7.1
2018-Feb-13 22:00N 34°38' E 135°18'0 0.2
2018-Feb-13 21:30N 34°38' E 135°18'0 0.1
2018-Feb-13 20:57N 34°38' E 135°18'0 0.0
2018-Feb-13 20:27N 34°38' E 135°18'0 0.0
2018-Feb-13 20:00N 34°38' E 135°18'0 0.0
2018-Feb-13 19:30N 34°38' E 135°18'0 0.0
2018-Feb-13 19:00N 34°38' E 135°18'0 0.0
2018-Feb-13 18:30N 34°38' E 135°18'0 0.0
2018-Feb-13 18:00N 34°38' E 135°18'0 0.0
2018-Feb-13 17:30N 34°38' E 135°18'0 0.0
2018-Feb-13 17:00N 34°38' E 135°18'0 0.0
2018-Feb-13 16:27N 34°38' E 135°18'0 0.0
2018-Feb-13 16:00N 34°38' E 135°18'0 0.0
2018-Feb-13 15:30N 34°38' E 135°18'0 0.0
2018-Feb-13 15:00N 34°38' E 135°18'0 0.0
2018-Feb-13 14:30N 34°38' E 135°18'0 0.0
2018-Feb-13 14:00N 34°38' E 135°18'0 0.0
2018-Feb-13 13:30N 34°38' E 135°18'0 0.0
2018-Feb-13 13:00N 34°38' E 135°18'0 0.0
2018-Feb-13 12:30N 34°38' E 135°18'0 0.5
2018-Feb-13 12:01N 34°38' E 135°18'5 9.0
2018-Feb-13 11:30N 34°35' E 135°14'5 9.8
2018-Feb-13 11:00N 34°35' E 135°08'5 9.1
2018-Feb-13 10:30N 34°36' E 135°02'4 7.6
2018-Feb-13 10:00N 34°37' E 134°58'5 9.2
2018-Feb-13 09:30N 34°35' E 134°53'5 9.7
2018-Feb-13 09:00N 34°33' E 134°47'5 9.9
2018-Feb-13 08:30N 34°31' E 134°42'510.0
2018-Feb-13 08:00N 34°29' E 134°36'5 9.9
2018-Feb-13 07:30N 34°27' E 134°31'510.1
2018-Feb-13 07:00N 34°25' E 134°25'8710.0
2018-Feb-12 22:23N 33°60' E 132°45'511.6
2018-Feb-12 21:58N 33°56' E 132°41'3210.5
2018-Feb-12 18:53N 33°45' E 132°04'10 9.7
2018-Feb-12 17:54N 33°45' E 131°53'6 9.9
2018-Feb-12 17:19N 33°45' E 131°46'310.2
2018-Feb-12 17:00N 33°46' E 131°42'510.4
2018-Feb-12 16:29N 33°47' E 131°36'510.3
2018-Feb-12 16:00N 33°48' E 131°30'510.6
2018-Feb-12 15:30N 33°49' E 131°24'510.7
2018-Feb-12 15:00N 33°50' E 131°18'510.9
2018-Feb-12 14:30N 33°52' E 131°11'511.0
2018-Feb-12 14:00N 33°55' E 131°06'510.4
2018-Feb-12 13:30N 33°58' E 131°01'5 9.6
2018-Feb-12 13:00N 33°56' E 130°56'3 6.3
2018-Feb-12 12:30N 33°56' E 130°52'4 8.9
2018-Feb-12 12:01N 34°00' E 130°50'5 9.1
2018-Feb-12 11:31N 34°03' E 130°47'5 9.5
2018-Feb-12 11:00N 34°06' E 130°42'5 9.3
2018-Feb-12 10:30N 34°09' E 130°37'5 9.6
2018-Feb-12 10:00N 34°12' E 130°33'5 9.7
2018-Feb-12 09:30N 34°14' E 130°28'5 9.8
2018-Feb-12 09:00N 34°18' E 130°23'5 9.9
2018-Feb-12 08:30N 34°21' E 130°18'  
2018-Feb-09 13:00N 31°30' E 121°25'  

Dump ship's entire track history